sensor_id;sensor_type;location;lat;lon;timestamp;P1;durP1;ratioP1;P2;durP2;ratioP2
66665;SDS011;53566;50.814;20.688;2022-08-03T00:00:07;35.739999999999995;;;20.919999999999998;;
66665;SDS011;53566;50.814;20.688;2022-08-03T00:07:05;35.53;;;20.709999999999997;;
66665;SDS011;53566;50.814;20.688;2022-08-03T00:14:20;34.69;;;20.36;;
66665;SDS011;53566;50.814;20.688;2022-08-03T00:21:16;34.1;;;20.33;;
66665;SDS011;53566;50.814;20.688;2022-08-03T00:28:16;33.9;;;20.14;;
66665;SDS011;53566;50.814;20.688;2022-08-03T00:35:16;34.26;;;20.21;;
66665;SDS011;53566;50.814;20.688;2022-08-03T00:42:05;34.93000000000001;;;20.69;;
66665;SDS011;53566;50.814;20.688;2022-08-03T00:49:02;37.13;;;21.6;;
66665;SDS011;53566;50.814;20.688;2022-08-03T00:56:16;37.98;;;21.919999999999998;;
66665;SDS011;53566;50.814;20.688;2022-08-03T01:00:17;38.42;;;22.34;;
66665;SDS011;53566;50.814;20.688;2022-08-03T01:14:59;39.379999999999995;;;22.7;;
66665;SDS011;53566;50.814;20.688;2022-08-03T01:22:04;39.66;;;22.639999999999997;;
66665;SDS011;53566;50.814;20.688;2022-08-03T01:28:32;39.84;;;22.89;;
66665;SDS011;53566;50.814;20.688;2022-08-03T01:35:04;39.62;;;22.85;;
66665;SDS011;53566;50.814;20.688;2022-08-03T01:42:03;39.57;;;22.740000000000002;;
66665;SDS011;53566;50.814;20.688;2022-08-03T01:49:39;39.35;;;22.47;;
66665;SDS011;53566;50.814;20.688;2022-08-03T01:56:25;39.41;;;22.59;;
66665;SDS011;53566;50.814;20.688;2022-08-03T02:00:27;39.35;;;22.509999999999998;;
66665;SDS011;53566;50.814;20.688;2022-08-03T02:07:03;39.33;;;22.68;;
66665;SDS011;53566;50.814;20.688;2022-08-03T02:14:23;40.52;;;23.150000000000002;;
66665;SDS011;53566;50.814;20.688;2022-08-03T02:21:17;40.63999999999999;;;23.27;;
66665;SDS011;53566;50.814;20.688;2022-08-03T02:28:41;40.93;;;23.29;;
66665;SDS011;53566;50.814;20.688;2022-08-03T02:35:08;40.660000000000004;;;23.27;;
66665;SDS011;53566;50.814;20.688;2022-08-03T02:42:15;40.13;;;22.919999999999998;;
66665;SDS011;53566;50.814;20.688;2022-08-03T02:49:11;38.97;;;22.67;;
66665;SDS011;53566;50.814;20.688;2022-08-03T02:56:12;38.45;;;22.34;;
66665;SDS011;53566;50.814;20.688;2022-08-03T03:00:19;38.2;;;22.0;;
66665;SDS011;53566;50.814;20.688;2022-08-03T03:07:17;37.42;;;21.830000000000002;;
66665;SDS011;53566;50.814;20.688;2022-08-03T03:14:23;36.26;;;21.23;;
66665;SDS011;53566;50.814;20.688;2022-08-03T03:21:02;35.699999999999996;;;20.990000000000002;;
66665;SDS011;53566;50.814;20.688;2022-08-03T03:28:17;34.8;;;20.34;;
66665;SDS011;53566;50.814;20.688;2022-08-03T03:35:03;34.64;;;20.39;;
66665;SDS011;53566;50.814;20.688;2022-08-03T03:42:02;34.77;;;20.44;;
66665;SDS011;53566;50.814;20.688;2022-08-03T03:49:02;34.71;;;20.38;;
66665;SDS011;53566;50.814;20.688;2022-08-03T03:56:17;34.86;;;20.400000000000002;;
66665;SDS011;53566;50.814;20.688;2022-08-03T04:00:18;35.05;;;20.610000000000003;;
66665;SDS011;53566;50.814;20.688;2022-08-03T04:14:34;35.34;;;20.7;;
66665;SDS011;53566;50.814;20.688;2022-08-03T04:21:10;35.379999999999995;;;20.79;;
66665;SDS011;53566;50.814;20.688;2022-08-03T04:28:06;35.970000000000006;;;21.05;;
66665;SDS011;53566;50.814;20.688;2022-08-03T04:35:14;36.11;;;21.180000000000003;;
66665;SDS011;53566;50.814;20.688;2022-08-03T04:42:25;36.76;;;21.200000000000003;;
66665;SDS011;53566;50.814;20.688;2022-08-03T04:49:30;37.699999999999996;;;21.84;;
66665;SDS011;53566;50.814;20.688;2022-08-03T04:56:04;38.75;;;22.25;;
66665;SDS011;53566;50.814;20.688;2022-08-03T05:00:14;39.26;;;22.74;;
66665;SDS011;53566;50.814;20.688;2022-08-03T05:07:01;40.3;;;23.25;;
66665;SDS011;53566;50.814;20.688;2022-08-03T05:14:04;41.11;;;23.689999999999998;;
66665;SDS011;53566;50.814;20.688;2022-08-03T05:21:04;41.8;;;23.970000000000002;;
66665;SDS011;53566;50.814;20.688;2022-08-03T05:28:13;43.02;;;24.729999999999997;;
66665;SDS011;53566;50.814;20.688;2022-08-03T05:35:16;43.24;;;24.55;;
66665;SDS011;53566;50.814;20.688;2022-08-03T05:42:14;43.13;;;24.57;;
66665;SDS011;53566;50.814;20.688;2022-08-03T05:49:19;42.11;;;24.09;;
66665;SDS011;53566;50.814;20.688;2022-08-03T05:56:02;41.910000000000004;;;23.81;;
66665;SDS011;53566;50.814;20.688;2022-08-03T06:00:05;40.84;;;23.380000000000003;;
66665;SDS011;53566;50.814;20.688;2022-08-03T06:07:03;40.13;;;23.150000000000002;;
66665;SDS011;53566;50.814;20.688;2022-08-03T06:14:17;39.06;;;22.47;;
66665;SDS011;53566;50.814;20.688;2022-08-03T06:21:18;38.190000000000005;;;22.11;;
66665;SDS011;53566;50.814;20.688;2022-08-03T06:28:13;34.919999999999995;;;20.529999999999998;;
66665;SDS011;53566;50.814;20.688;2022-08-03T06:35:18;33.5;;;19.939999999999998;;
66665;SDS011;53566;50.814;20.688;2022-08-03T06:42:15;32.27;;;19.41;;
66665;SDS011;53566;50.814;20.688;2022-08-03T06:49:18;29.740000000000002;;;18.28;;
66665;SDS011;53566;50.814;20.688;2022-08-03T06:56:10;28.57;;;17.64;;
66665;SDS011;53566;50.814;20.688;2022-08-03T07:00:19;27.78;;;17.2;;
66665;SDS011;53566;50.814;20.688;2022-08-03T07:07:19;26.68;;;16.779999999999998;;
66665;SDS011;53566;50.814;20.688;2022-08-03T07:14:18;24.59;;;15.870000000000001;;
66665;SDS011;53566;50.814;20.688;2022-08-03T07:21:05;23.900000000000002;;;15.57;;
66665;SDS011;53566;50.814;20.688;2022-08-03T07:28:04;22.860000000000003;;;15.09;;
66665;SDS011;53566;50.814;20.688;2022-08-03T07:35:14;23.11;;;15.25;;
66665;SDS011;53566;50.814;20.688;2022-08-03T07:42:20;22.92;;;15.19;;
66665;SDS011;53566;50.814;20.688;2022-08-03T07:49:03;22.63;;;14.93;;
66665;SDS011;53566;50.814;20.688;2022-08-03T07:56:16;22.53;;;14.84;;
66665;SDS011;53566;50.814;20.688;2022-08-03T08:00:33;22.3;;;14.65;;
66665;SDS011;53566;50.814;20.688;2022-08-03T08:07:13;21.9;;;14.47;;
66665;SDS011;53566;50.814;20.688;2022-08-03T08:14:14;21.55;;;14.360000000000001;;
66665;SDS011;53566;50.814;20.688;2022-08-03T08:21:14;21.580000000000002;;;14.29;;
66665;SDS011;53566;50.814;20.688;2022-08-03T08:28:06;21.76;;;14.43;;
66665;SDS011;53566;50.814;20.688;2022-08-03T08:35:19;21.520000000000003;;;14.27;;
66665;SDS011;53566;50.814;20.688;2022-08-03T08:42:17;21.62;;;14.37;;
66665;SDS011;53566;50.814;20.688;2022-08-03T08:49:26;21.95;;;14.59;;
66665;SDS011;53566;50.814;20.688;2022-08-03T08:56:26;21.8;;;14.52;;
66665;SDS011;53566;50.814;20.688;2022-08-03T09:00:24;21.88;;;14.469999999999999;;
66665;SDS011;53566;50.814;20.688;2022-08-03T09:07:03;21.880000000000003;;;14.48;;
66665;SDS011;53566;50.814;20.688;2022-08-03T09:14:09;21.37;;;14.180000000000001;;
66665;SDS011;53566;50.814;20.688;2022-08-03T09:21:11;21.08;;;13.9;;
66665;SDS011;53566;50.814;20.688;2022-08-03T09:28:23;20.34;;;13.55;;
66665;SDS011;53566;50.814;20.688;2022-08-03T09:35:13;20.1;;;13.4;;
66665;SDS011;53566;50.814;20.688;2022-08-03T09:42:17;19.95;;;13.21;;
66665;SDS011;53566;50.814;20.688;2022-08-03T09:49:24;19.400000000000002;;;12.91;;
66665;SDS011;53566;50.814;20.688;2022-08-03T09:56:18;19.29;;;12.780000000000001;;
66665;SDS011;53566;50.814;20.688;2022-08-03T10:00:17;19.09;;;12.74;;
66665;SDS011;53566;50.814;20.688;2022-08-03T10:07:14;18.96;;;12.64;;
66665;SDS011;53566;50.814;20.688;2022-08-03T10:14:25;18.880000000000003;;;12.61;;
66665;SDS011;53566;50.814;20.688;2022-08-03T10:21:36;18.67;;;12.51;;
66665;SDS011;53566;50.814;20.688;2022-08-03T10:28:04;18.84;;;12.719999999999999;;
66665;SDS011;53566;50.814;20.688;2022-08-03T10:35:29;18.93;;;12.71;;
66665;SDS011;53566;50.814;20.688;2022-08-03T10:42:16;18.869999999999997;;;12.65;;
66665;SDS011;53566;50.814;20.688;2022-08-03T10:49:25;19.040000000000003;;;12.73;;
66665;SDS011;53566;50.814;20.688;2022-08-03T11:00:24;18.91;;;12.709999999999999;;
66665;SDS011;53566;50.814;20.688;2022-08-03T11:07:19;19.04;;;12.799999999999999;;
66665;SDS011;53566;50.814;20.688;2022-08-03T11:14:16;19.59;;;13.17;;
66665;SDS011;53566;50.814;20.688;2022-08-03T11:21:07;19.779999999999998;;;13.37;;
66665;SDS011;53566;50.814;20.688;2022-08-03T11:28:34;20.39;;;13.6;;
66665;SDS011;53566;50.814;20.688;2022-08-03T11:35:18;20.330000000000002;;;13.71;;
66665;SDS011;53566;50.814;20.688;2022-08-03T11:42:59;20.78;;;14.05;;
66665;SDS011;53566;50.814;20.688;2022-08-03T11:49:25;21.18;;;14.06;;
66665;SDS011;53566;50.814;20.688;2022-08-03T11:56:13;21.34;;;14.260000000000002;;
66665;SDS011;53566;50.814;20.688;2022-08-03T12:00:23;21.409999999999997;;;14.370000000000001;;
66665;SDS011;53566;50.814;20.688;2022-08-03T12:07:03;21.61;;;14.48;;
66665;SDS011;53566;50.814;20.688;2022-08-03T12:14:19;21.47;;;14.5;;
66665;SDS011;53566;50.814;20.688;2022-08-03T12:21:25;21.720000000000002;;;14.54;;
66665;SDS011;53566;50.814;20.688;2022-08-03T12:28:20;21.39;;;14.48;;
66665;SDS011;53566;50.814;20.688;2022-08-03T12:35:05;21.509999999999998;;;14.44;;
66665;SDS011;53566;50.814;20.688;2022-08-03T12:42:04;21.43;;;14.450000000000001;;
66665;SDS011;53566;50.814;20.688;2022-08-03T12:49:03;21.330000000000002;;;14.25;;
66665;SDS011;53566;50.814;20.688;2022-08-03T12:56:19;21.36;;;14.22;;
66665;SDS011;53566;50.814;20.688;2022-08-03T13:00:26;21.18;;;14.25;;
66665;SDS011;53566;50.814;20.688;2022-08-03T13:07:15;21.11;;;14.129999999999999;;
66665;SDS011;53566;50.814;20.688;2022-08-03T13:14:05;20.83;;;14.04;;
66665;SDS011;53566;50.814;20.688;2022-08-03T13:21:15;20.66;;;13.83;;
66665;SDS011;53566;50.814;20.688;2022-08-03T13:28:16;20.3;;;13.71;;
66665;SDS011;53566;50.814;20.688;2022-08-03T13:35:02;20.04;;;13.51;;
66665;SDS011;53566;50.814;20.688;2022-08-03T13:42:19;19.96;;;13.33;;
66665;SDS011;53566;50.814;20.688;2022-08-03T13:49:02;19.47;;;13.11;;
66665;SDS011;53566;50.814;20.688;2022-08-03T13:56:02;19.24;;;13.03;;
66665;SDS011;53566;50.814;20.688;2022-08-03T14:00:26;19.17;;;12.98;;
66665;SDS011;53566;50.814;20.688;2022-08-03T14:07:16;19.139999999999997;;;12.88;;
66665;SDS011;53566;50.814;20.688;2022-08-03T14:14:05;19.240000000000002;;;12.96;;
66665;SDS011;53566;50.814;20.688;2022-08-03T14:21:19;19.24;;;12.969999999999999;;
66665;SDS011;53566;50.814;20.688;2022-08-03T14:28:04;19.49;;;13.05;;
66665;SDS011;53566;50.814;20.688;2022-08-03T14:35:17;19.4;;;13.07;;
66665;SDS011;53566;50.814;20.688;2022-08-03T14:42:06;19.49;;;13.05;;
66665;SDS011;53566;50.814;20.688;2022-08-03T14:49:19;19.64;;;13.17;;
66665;SDS011;53566;50.814;20.688;2022-08-03T14:56:02;19.48;;;13.05;;
66665;SDS011;53566;50.814;20.688;2022-08-03T15:00:07;19.53;;;13.030000000000001;;
66665;SDS011;53566;50.814;20.688;2022-08-03T15:07:19;19.400000000000002;;;12.96;;
66665;SDS011;53566;50.814;20.688;2022-08-03T15:14:03;19.55;;;13.08;;
66665;SDS011;53566;50.814;20.688;2022-08-03T15:21:15;19.639999999999997;;;13.02;;
66665;SDS011;53566;50.814;20.688;2022-08-03T15:28:17;19.68;;;13.12;;
66665;SDS011;53566;50.814;20.688;2022-08-03T15:35:19;19.849999999999998;;;13.31;;
66665;SDS011;53566;50.814;20.688;2022-08-03T15:42:13;20.04;;;13.41;;
66665;SDS011;53566;50.814;20.688;2022-08-03T15:49:21;20.33;;;13.649999999999999;;
66665;SDS011;53566;50.814;20.688;2022-08-03T15:56:12;20.57;;;13.67;;
66665;SDS011;53566;50.814;20.688;2022-08-03T16:00:01;20.95;;;13.91;;
66665;SDS011;53566;50.814;20.688;2022-08-03T16:07:03;21.1;;;13.93;;
66665;SDS011;53566;50.814;20.688;2022-08-03T16:14:12;21.35;;;14.11;;
66665;SDS011;53566;50.814;20.688;2022-08-03T16:21:05;21.740000000000002;;;14.35;;
66665;SDS011;53566;50.814;20.688;2022-08-03T16:28:03;21.87;;;14.479999999999999;;
66665;SDS011;53566;50.814;20.688;2022-08-03T16:35:20;21.63;;;14.309999999999999;;
66665;SDS011;53566;50.814;20.688;2022-08-03T16:42:02;21.459999999999997;;;14.22;;
66665;SDS011;53566;50.814;20.688;2022-08-03T16:49:02;21.110000000000003;;;13.94;;
66665;SDS011;53566;50.814;20.688;2022-08-03T16:56:03;20.779999999999998;;;13.809999999999999;;
66665;SDS011;53566;50.814;20.688;2022-08-03T17:00:06;20.419999999999998;;;13.59;;
66665;SDS011;53566;50.814;20.688;2022-08-03T17:07:20;20.22;;;13.389999999999999;;
66665;SDS011;53566;50.814;20.688;2022-08-03T17:14:02;19.669999999999998;;;13.04;;
66665;SDS011;53566;50.814;20.688;2022-08-03T17:21:29;19.57;;;13.07;;
66665;SDS011;53566;50.814;20.688;2022-08-03T17:28:16;19.61;;;13.12;;
66665;SDS011;53566;50.814;20.688;2022-08-03T17:35:15;19.75;;;13.290000000000001;;
66665;SDS011;53566;50.814;20.688;2022-08-03T17:42:13;20.12;;;13.44;;
66665;SDS011;53566;50.814;20.688;2022-08-03T17:49:20;20.59;;;13.77;;
66665;SDS011;53566;50.814;20.688;2022-08-03T17:56:53;21.05;;;13.96;;
66665;SDS011;53566;50.814;20.688;2022-08-03T18:07:18;21.73;;;14.409999999999998;;
66665;SDS011;53566;50.814;20.688;2022-08-03T18:14:04;22.2;;;14.809999999999999;;
66665;SDS011;53566;50.814;20.688;2022-08-03T18:21:23;22.17;;;14.68;;
66665;SDS011;53566;50.814;20.688;2022-08-03T18:28:09;22.24;;;14.8;;
66665;SDS011;53566;50.814;20.688;2022-08-03T18:35:19;22.48;;;14.88;;
66665;SDS011;53566;50.814;20.688;2022-08-03T18:42:03;22.43;;;15.01;;
66665;SDS011;53566;50.814;20.688;2022-08-03T18:49:41;22.95;;;15.23;;
66665;SDS011;53566;50.814;20.688;2022-08-03T18:56:05;22.98;;;15.44;;
66665;SDS011;53566;50.814;20.688;2022-08-03T19:00:12;23.029999999999998;;;15.4;;
66665;SDS011;53566;50.814;20.688;2022-08-03T19:07:41;23.43;;;15.549999999999999;;
66665;SDS011;53566;50.814;20.688;2022-08-03T19:14:13;23.6;;;15.62;;
66665;SDS011;53566;50.814;20.688;2022-08-03T19:21:29;23.62;;;15.7;;
66665;SDS011;53566;50.814;20.688;2022-08-03T19:28:04;23.84;;;15.94;;
66665;SDS011;53566;50.814;20.688;2022-08-03T19:35:23;23.91;;;15.9;;
66665;SDS011;53566;50.814;20.688;2022-08-03T19:42:46;23.849999999999998;;;15.88;;
66665;SDS011;53566;50.814;20.688;2022-08-03T19:49:07;23.9;;;15.82;;
66665;SDS011;53566;50.814;20.688;2022-08-03T19:56:16;24.34;;;16.01;;
66665;SDS011;53566;50.814;20.688;2022-08-03T20:00:12;24.360000000000003;;;16.07;;
66665;SDS011;53566;50.814;20.688;2022-08-03T20:07:02;24.560000000000002;;;16.24;;
66665;SDS011;53566;50.814;20.688;2022-08-03T20:14:03;25.59;;;16.63;;
66665;SDS011;53566;50.814;20.688;2022-08-03T20:21:33;25.939999999999998;;;16.650000000000002;;
66665;SDS011;53566;50.814;20.688;2022-08-03T20:28:21;26.439999999999998;;;17.040000000000003;;
66665;SDS011;53566;50.814;20.688;2022-08-03T20:35:05;26.62;;;17.14;;
66665;SDS011;53566;50.814;20.688;2022-08-03T20:42:04;26.950000000000003;;;17.169999999999998;;
66665;SDS011;53566;50.814;20.688;2022-08-03T20:49:02;28.05;;;17.669999999999998;;
66665;SDS011;53566;50.814;20.688;2022-08-03T20:56:02;28.48;;;17.83;;
66665;SDS011;53566;50.814;20.688;2022-08-03T21:00:23;29.349999999999998;;;18.240000000000002;;
66665;SDS011;53566;50.814;20.688;2022-08-03T21:07:40;30.25;;;18.49;;
66665;SDS011;53566;50.814;20.688;2022-08-03T21:14:03;30.330000000000002;;;18.53;;
66665;SDS011;53566;50.814;20.688;2022-08-03T21:21:19;31.16;;;18.889999999999997;;
66665;SDS011;53566;50.814;20.688;2022-08-03T21:28:07;32.45;;;19.459999999999997;;
66665;SDS011;53566;50.814;20.688;2022-08-03T21:35:12;33.35;;;19.89;;
66665;SDS011;53566;50.814;20.688;2022-08-03T21:42:13;34.230000000000004;;;20.310000000000002;;
66665;SDS011;53566;50.814;20.688;2022-08-03T21:49:34;34.629999999999995;;;20.419999999999998;;
66665;SDS011;53566;50.814;20.688;2022-08-03T21:56:04;35.0;;;20.57;;
66665;SDS011;53566;50.814;20.688;2022-08-03T22:00:19;35.190000000000005;;;20.56;;
66665;SDS011;53566;50.814;20.688;2022-08-03T22:07:24;35.07;;;20.5;;
66665;SDS011;53566;50.814;20.688;2022-08-03T22:14:04;35.5;;;20.77;;
66665;SDS011;53566;50.814;20.688;2022-08-03T22:21:33;35.33;;;20.740000000000002;;
66665;SDS011;53566;50.814;20.688;2022-08-03T22:28:29;34.87;;;20.46;;
66665;SDS011;53566;50.814;20.688;2022-08-03T22:35:25;34.68000000000001;;;20.46;;
66665;SDS011;53566;50.814;20.688;2022-08-03T22:42:13;34.349999999999994;;;20.41;;
66665;SDS011;53566;50.814;20.688;2022-08-03T22:49:26;34.61;;;20.37;;
66665;SDS011;53566;50.814;20.688;2022-08-03T22:56:16;34.379999999999995;;;20.29;;
66665;SDS011;53566;50.814;20.688;2022-08-03T23:00:04;34.24;;;20.2;;
66665;SDS011;53566;50.814;20.688;2022-08-03T23:07:15;34.05;;;20.229999999999997;;
66665;SDS011;53566;50.814;20.688;2022-08-03T23:14:37;33.87;;;20.06;;
66665;SDS011;53566;50.814;20.688;2022-08-03T23:21:05;34.05;;;20.13;;
66665;SDS011;53566;50.814;20.688;2022-08-03T23:28:04;33.72;;;19.89;;
66665;SDS011;53566;50.814;20.688;2022-08-03T23:42:19;33.39;;;19.77;;
66665;SDS011;53566;50.814;20.688;2022-08-03T23:49:05;32.489999999999995;;;19.409999999999997;;
66665;SDS011;53566;50.814;20.688;2022-08-03T23:56:06;32.2;;;19.2;;
